Time;durP1;ratioP1;P1;durP2;ratioP2;P2;SDS_P1;SDS_P2;PMS_P1;PMS_P2;Temp;Humidity;BMP_temperature;BMP_pressure;BME280_temperature;BME280_humidity;BME280_pressure;Samples;Min_cycle;Max_cycle;Signal;HPM_P1;HPM_P2
2022/01/26 00:00:41;;;;;;;78.38;26.65;;;;;;;7.36;53.77;103290.03;5014170;28;113665;-75
2022/01/26 00:06:00;;;;;;;;;;;;;;;7.34;53.88;103291.75;4988790;28;124071;-76
2022/01/26 00:08:27;;;;;;;77.20;25.60;;;;;;;7.36;53.84;103290.03;4988702;28;114122;-76
2022/01/26 00:10:55;;;;;;;80.95;28.10;;;;;;;7.37;54.14;103286.53;5004942;28;113344;-76
2022/01/26 00:13:22;;;;;;;77.90;27.02;;;;;;;7.37;53.77;103286.53;5004753;28;123233;-76
2022/01/26 00:15:49;;;;;;;77.82;26.65;;;;;;;7.36;54.07;103290.91;5008041;28;123877;-75
2022/01/26 00:18:19;;;;;;;82.65;26.92;;;;;;;7.35;54.15;103288.28;4992722;28;113989;-76
2022/01/26 00:20:54;;;;;;;81.53;27.63;;;;;;;7.33;54.08;103290.03;4993121;28;113971;-76
2022/01/26 00:26:13;;;;;;;79.13;27.00;;;;;;;7.34;53.71;103286.50;4992311;28;123696;-76
2022/01/26 00:32:56;;;;;;;82.95;27.70;;;;;;;7.33;53.75;103269.81;4991103;28;115284;-75
2022/01/26 00:39:32;;;;;;;81.53;26.58;;;;;;;7.28;53.58;103275.91;4991218;28;114635;-74
2022/01/26 00:42:00;;;;;;;87.40;28.63;;;;;;;7.25;53.96;103271.47;4991112;28;113793;-75
2022/01/26 00:44:35;;;;;;;82.07;27.02;;;;;;;7.22;54.11;103272.34;4992408;28;124042;-76
2022/01/26 00:47:02;;;;;;;82.35;28.73;;;;;;;7.18;53.98;103270.56;4993254;28;123740;-76
2022/01/26 00:49:29;;;;;;;81.85;27.30;;;;;;;7.15;53.98;103270.53;5011207;28;113171;-74
2022/01/26 00:51:56;;;;;;;82.80;26.50;;;;;;;7.14;54.10;103273.13;4992437;28;114629;-76
2022/01/26 00:54:24;;;;;;;83.00;28.13;;;;;;;7.12;54.31;103270.53;4991682;28;123798;-76
2022/01/26 00:56:51;;;;;;;79.45;27.45;;;;;;;7.11;54.01;103276.63;4990444;28;123656;-76
2022/01/26 00:59:18;;;;;;;82.60;27.27;;;;;;;7.09;53.99;103264.34;4991841;28;113720;-75
2022/01/26 01:01:46;;;;;;;82.35;28.25;;;;;;;7.10;54.20;103272.25;5007334;28;114513;-76
2022/01/26 01:04:14;;;;;;;80.65;27.42;;;;;;;7.11;54.14;103268.75;4991671;28;124088;-75
2022/01/26 01:06:49;;;;;;;88.38;28.98;;;;;;;7.10;54.18;103256.44;4991335;28;123200;-76
2022/01/26 01:09:17;;;;;;;78.88;27.15;;;;;;;7.09;54.09;103270.47;4991208;28;114100;-76
2022/01/26 01:11:44;;;;;;;84.43;27.92;;;;;;;7.06;54.05;103265.16;4990690;28;114371;-76
2022/01/26 01:14:11;;;;;;;85.47;27.48;;;;;;;7.04;53.83;103269.53;4991963;28;125194;-76
2022/01/26 01:16:39;;;;;;;81.03;26.95;;;;;;;7.01;54.02;103266.91;4991251;28;123833;-75
2022/01/26 01:19:13;;;;;;;77.10;26.27;;;;;;;7.00;54.22;103265.13;4989959;28;115297;-76
2022/01/26 01:25:00;;;;;;;;;;;;;;;6.95;54.31;103269.47;4988712;28;123667;-76
2022/01/26 01:30:25;;;;;;;80.97;26.90;;;;;;;6.89;54.17;103243.06;4990769;28;114276;-76
2022/01/26 01:33:04;;;;;;;79.60;27.15;;;;;;;6.87;53.97;103236.91;4988737;28;114385;-76
2022/01/26 01:35:35;;;;;;;79.18;25.85;;;;;;;6.89;54.10;103236.03;4973118;28;122186;-76
2022/01/26 01:38:11;;;;;;;79.80;26.02;;;;;;;6.92;54.31;103245.75;4991071;28;123694;-76
2022/01/26 01:40:40;;;;;;;81.88;26.27;;;;;;;6.94;54.20;103244.00;4987084;28;114006;-76
2022/01/26 01:43:09;;;;;;;83.90;26.92;;;;;;;6.96;54.45;103243.13;4990413;28;113962;-76
2022/01/26 01:45:46;;;;;;;82.50;26.85;;;;;;;6.99;54.36;103242.31;4991243;28;124010;-76
2022/01/26 01:48:18;;;;;;;82.45;26.60;;;;;;;7.02;54.25;103242.31;4991623;28;124148;-76
2022/01/26 01:50:47;;;;;;;84.35;27.45;;;;;;;7.02;54.05;103231.78;4990725;28;113134;-75
2022/01/26 01:53:16;;;;;;;79.00;25.60;;;;;;;7.05;53.91;103241.47;4990893;28;113710;-76
2022/01/26 01:55:48;;;;;;;84.85;28.73;;;;;;;7.06;54.43;103249.34;5006391;28;123429;-76
2022/01/26 01:58:18;;;;;;;85.60;28.02;;;;;;;7.07;54.41;103250.28;4972899;28;123188;-76
2022/01/26 02:00:45;;;;;;;82.65;27.23;;;;;;;7.06;54.00;103246.72;4990952;28;114241;-76
2022/01/26 02:03:13;;;;;;;84.50;28.17;;;;;;;7.06;54.18;103249.34;4990101;28;113622;-76
2022/01/26 02:05:40;;;;;;;86.90;27.50;;;;;;;7.07;54.34;103240.59;4988773;28;123849;-76
2022/01/26 02:08:07;;;;;;;85.47;27.20;;;;;;;7.05;54.05;103239.72;4990493;28;123926;-76
2022/01/26 02:10:35;;;;;;;84.70;27.50;;;;;;;7.01;54.11;103230.03;4991209;28;115081;-76
2022/01/26 02:13:13;;;;;;;84.55;28.17;;;;;;;6.98;53.91;103225.59;4990812;28;115294;-76
2022/01/26 02:15:52;;;;;;;85.22;27.73;;;;;;;6.97;53.90;103222.97;4986532;28;124774;-76
2022/01/26 02:21:12;;;;;;;83.70;26.55;;;;;;;6.95;54.46;103209.78;4987734;28;114922;-75
2022/01/26 02:51:59;;;;;;;82.57;26.45;;;;;;;6.97;54.18;103192.22;4989454;28;123623;-75
2022/01/26 02:54:47;;;;;;;88.55;27.50;;;;;;;6.99;54.21;103189.59;4989089;28;114219;-76
2022/01/26 02:57:34;;;;;;;85.05;27.90;;;;;;;7.00;54.40;103172.91;4989472;28;113857;-76
2022/01/26 03:05:08;;;;;;;88.35;26.98;;;;;;;7.04;54.24;103177.31;4989517;28;115549;-76
2022/01/26 03:10:13;;;;;;;86.65;27.23;;;;;;;7.07;54.04;103172.09;4990134;28;123974;-76
2022/01/26 03:12:50;;;;;;;82.35;27.58;;;;;;;7.09;54.00;103158.94;4989232;28;123777;-76
2022/01/26 03:15:26;;;;;;;86.60;28.33;;;;;;;7.10;54.09;103166.84;5006160;28;112668;-76
2022/01/26 03:20:41;;;;;;;81.55;27.73;;;;;;;7.13;54.44;103166.84;4987362;28;124205;-76
2022/01/26 03:29:10;;;;;;;90.72;27.58;;;;;;;7.14;54.02;103168.63;4988297;28;113899;-77
2022/01/26 03:32:10;;;;;;;86.18;27.83;;;;;;;7.13;53.98;103166.84;4988777;28;124792;-76
2022/01/26 03:34:25;;;;;;;84.20;27.42;;;;;;;7.10;54.02;103172.13;4988173;28;123208;-76
2022/01/26 03:36:57;;;;;;;85.80;26.40;;;;;;;7.08;54.07;103173.84;5005032;28;114394;-76
2022/01/26 03:39:25;;;;;;;86.95;28.33;;;;;;;7.09;54.12;103180.00;5002224;28;113807;-76
2022/01/26 03:42:04;;;;;;;85.00;27.60;;;;;;;7.08;54.32;103167.69;4987509;28;123050;-76
2022/01/26 03:44:32;;;;;;;86.72;27.40;;;;;;;7.06;54.24;103178.22;4987158;28;123912;-76
2022/01/26 03:47:00;;;;;;;88.97;27.67;;;;;;;7.05;54.42;103179.09;4989377;28;113582;-76
2022/01/26 03:49:28;;;;;;;84.57;27.13;;;;;;;7.05;54.23;103184.38;4991236;28;114083;-76
2022/01/26 03:51:55;;;;;;;87.80;28.13;;;;;;;7.04;54.20;103177.31;4991414;28;123268;-76
2022/01/26 03:54:23;;;;;;;85.03;27.15;;;;;;;7.04;53.76;103176.44;4992632;28;123577;-76
2022/01/26 03:56:50;;;;;;;95.38;28.27;;;;;;;7.03;54.28;103175.59;4991490;28;115249;-76
2022/01/26 03:59:17;;;;;;;81.43;25.48;;;;;;;7.03;54.14;103175.59;4991517;28;113908;-76
2022/01/26 04:01:44;;;;;;;84.07;26.65;;;;;;;7.04;54.35;103165.91;4992574;28;125177;-76
2022/01/26 04:04:11;;;;;;;82.53;26.67;;;;;;;7.05;54.31;103165.94;4991643;28;124526;-76
2022/01/26 04:06:39;;;;;;;74.30;26.02;;;;;;;7.05;54.10;103168.56;4991207;28;114206;-76
2022/01/26 04:09:09;;;;;;;80.50;25.52;;;;;;;7.07;53.96;103166.81;4993071;28;112968;-76
2022/01/26 04:11:45;;;;;;;78.18;25.98;;;;;;;7.06;54.35;103159.78;4993334;28;98348;-76
2022/01/26 04:14:16;;;;;;;82.72;27.45;;;;;;;7.06;54.21;103167.69;4988618;28;123481;-76
2022/01/26 04:16:44;;;;;;;80.38;26.85;;;;;;;7.06;53.87;103151.88;4974549;28;113127;-75
2022/01/26 04:19:12;;;;;;;74.70;25.30;;;;;;;7.08;54.24;103152.75;4992906;28;114606;-75
2022/01/26 04:24:27;;;;;;;77.28;26.55;;;;;;;7.11;54.18;103160.69;4991343;28;122660;-76
2022/01/26 04:27:02;;;;;;;78.80;25.70;;;;;;;7.12;53.90;103169.47;4991296;28;113739;-76
2022/01/26 04:29:32;;;;;;;81.88;25.90;;;;;;;7.11;54.23;103179.13;4992245;28;113624;-74
2022/01/26 04:32:03;;;;;;;79.63;26.52;;;;;;;7.12;54.40;103180.00;4990544;28;123258;-76
2022/01/26 04:34:32;;;;;;;77.00;25.70;;;;;;;7.14;54.18;103179.19;4992483;28;123866;-75
2022/01/26 04:37:15;;;;;;;77.88;25.52;;;;;;;7.15;53.85;103190.59;4990669;28;113947;-76
2022/01/26 04:39:53;;;;;;;76.30;25.60;;;;;;;7.17;53.97;103189.72;4990971;28;112749;-76
2022/01/26 04:42:43;;;;;;;77.22;26.33;;;;;;;7.19;54.38;103190.59;4990388;28;124832;-76
2022/01/26 04:45:11;;;;;;;83.22;26.98;;;;;;;7.20;54.25;103184.47;4992123;28;124202;-76
2022/01/26 04:47:39;;;;;;;72.90;24.55;;;;;;;7.21;54.19;103186.25;4990239;28;115316;-76
2022/01/26 04:50:09;;;;;;;79.63;27.17;;;;;;;7.23;54.26;103188.88;4991974;28;113835;-75
2022/01/26 04:52:36;;;;;;;81.88;27.02;;;;;;;7.24;54.21;103189.78;4973305;28;123300;-76
2022/01/26 04:55:04;;;;;;;83.72;26.95;;;;;;;7.22;54.30;103182.72;4991826;28;124003;-75
2022/01/26 04:57:31;;;;;;;75.63;25.38;;;;;;;7.22;54.19;103174.81;4990531;28;113597;-76
2022/01/26 04:59:58;;;;;;;82.63;26.83;;;;;;;7.24;54.17;103185.38;4990642;28;113820;-75
2022/01/26 05:02:25;;;;;;;81.18;25.65;;;;;;;7.25;54.22;103191.53;4991706;28;123766;-76
2022/01/26 05:04:52;;;;;;;81.13;26.33;;;;;;;7.25;54.24;103191.53;4991712;28;123938;-75
2022/01/26 05:07:20;;;;;;;82.22;26.40;;;;;;;7.25;54.26;103173.06;4990101;28;114547;-76
2022/01/26 05:09:47;;;;;;;79.25;25.75;;;;;;;7.25;54.37;103154.63;4973855;28;113768;-76
2022/01/26 05:12:15;;;;;;;77.00;25.63;;;;;;;7.24;54.21;103158.16;4991012;28;123794;-76
2022/01/26 05:14:45;;;;;;;73.90;24.98;;;;;;;7.24;53.97;103163.44;4989860;28;122811;-76
2022/01/26 05:17:19;;;;;;;78.20;26.00;;;;;;;7.22;54.10;103161.66;4990267;28;113778;-76
2022/01/26 05:19:47;;;;;;;82.57;26.55;;;;;;;7.21;53.98;103154.63;4989957;28;113412;-76
2022/01/26 05:22:14;;;;;;;75.38;25.48;;;;;;;7.21;54.38;103143.19;4989919;28;124355;-76
2022/01/26 05:24:41;;;;;;;80.63;26.65;;;;;;;7.20;54.07;103141.44;4991355;28;123424;-76
2022/01/26 05:27:08;;;;;;;87.38;27.02;;;;;;;7.19;54.44;103139.66;4990067;28;113645;-76
2022/01/26 05:29:35;;;;;;;85.68;27.30;;;;;;;7.17;54.22;103131.75;4991970;28;114085;-75
2022/01/26 05:32:02;;;;;;;80.40;26.77;;;;;;;7.17;54.24;103115.94;4972722;28;122939;-76
2022/01/26 05:34:30;;;;;;;82.57;27.73;;;;;;;7.17;54.35;103126.47;4989544;28;122985;-75
2022/01/26 05:36:57;;;;;;;86.25;26.95;;;;;;;7.15;54.21;103117.69;4989996;28;115307;-76
2022/01/26 05:39:24;;;;;;;85.80;27.30;;;;;;;7.14;54.29;103121.19;4990294;28;114627;-76
2022/01/26 05:41:51;;;;;;;79.82;26.17;;;;;;;7.10;54.13;103129.97;4989958;28;123930;-76
2022/01/26 05:44:18;;;;;;;80.70;27.77;;;;;;;7.09;54.18;103125.56;4990125;28;123484;-76
2022/01/26 05:46:48;;;;;;;85.57;28.23;;;;;;;7.08;54.39;103136.94;4991170;28;113870;-76
2022/01/26 05:49:18;;;;;;;91.68;27.77;;;;;;;7.07;54.32;103135.19;4991725;28;113898;-75
2022/01/26 05:51:46;;;;;;;89.25;27.20;;;;;;;7.05;54.47;103126.41;4989448;28;122925;-76
2022/01/26 05:54:15;;;;;;;86.50;27.35;;;;;;;7.05;54.50;103121.13;4991558;28;123145;-76
2022/01/26 05:56:46;;;;;;;83.60;26.48;;;;;;;7.02;54.23;103121.09;4991172;28;114254;-76
2022/01/26 05:59:20;;;;;;;87.70;26.73;;;;;;;6.99;54.34;103121.09;4989668;28;112432;-76
2022/01/26 06:01:48;;;;;;;82.95;26.38;;;;;;;6.97;54.60;103129.00;4991157;28;124693;-75
2022/01/26 06:04:16;;;;;;;93.70;28.73;;;;;;;6.95;54.29;103125.47;4972631;28;123115;-76
2022/01/26 06:06:44;;;;;;;89.25;27.95;;;;;;;6.94;54.61;103128.09;4991271;28;114271;-76
2022/01/26 06:09:11;;;;;;;88.05;27.25;;;;;;;6.93;54.55;103121.94;4989922;28;116044;-76
2022/01/26 06:11:38;;;;;;;92.47;26.95;;;;;;;6.94;54.37;103133.34;4988752;28;123368;-75
2022/01/26 06:14:05;;;;;;;89.72;26.58;;;;;;;6.92;54.40;103129.84;4989699;28;121818;-76
2022/01/26 06:16:32;;;;;;;80.65;26.20;;;;;;;6.92;54.66;103140.38;4991337;28;114336;-78
2022/01/26 06:18:59;;;;;;;89.82;27.88;;;;;;;6.92;54.70;103150.91;4990912;28;113441;-77
2022/01/26 06:21:26;;;;;;;94.38;29.13;;;;;;;6.92;54.86;103140.38;4974104;28;123726;-76
2022/01/26 06:23:54;;;;;;;93.10;27.40;;;;;;;6.90;54.76;103132.44;4991175;28;124314;-76
2022/01/26 06:26:21;;;;;;;84.22;26.92;;;;;;;6.89;54.41;103124.53;4988742;28;115291;-76
2022/01/26 06:28:48;;;;;;;84.65;25.77;;;;;;;6.88;54.46;103128.06;4989327;28;114597;-76
2022/01/26 06:31:16;;;;;;;91.70;28.48;;;;;;;6.87;54.79;103121.88;4990225;28;124089;-76
2022/01/26 06:33:46;;;;;;;95.18;26.40;;;;;;;6.88;54.40;103138.59;4972326;28;123447;-76
2022/01/26 06:36:16;;;;;;;95.55;29.55;;;;;;;6.90;54.54;103121.03;4988542;28;114039;-76
2022/01/26 06:38:46;;;;;;;101.28;28.30;;;;;;;6.91;54.69;103128.06;4988930;28;113985;-76
2022/01/26 06:41:14;;;;;;;89.28;27.48;;;;;;;6.91;54.78;103138.59;4988149;28;123177;-76
2022/01/26 06:43:48;;;;;;;94.32;27.25;;;;;;;6.92;54.97;103135.09;4989173;28;123467;-76
2022/01/26 06:46:24;;;;;;;88.93;26.17;;;;;;;6.90;54.72;103136.84;4987932;28;113810;-76
2022/01/26 06:51:37;;;;;;;88.55;26.75;;;;;;;6.90;54.60;103155.28;4988154;28;124280;-76
2022/01/26 06:54:05;;;;;;;90.28;26.77;;;;;;;6.89;54.93;103145.59;4989635;28;124433;-76
2022/01/26 06:56:32;;;;;;;93.07;28.88;;;;;;;6.87;54.59;103152.63;4989256;28;113298;-76
2022/01/26 06:58:59;;;;;;;95.60;28.60;;;;;;;6.86;54.71;103146.47;4988715;28;113351;-75
2022/01/26 07:01:26;;;;;;;91.07;27.20;;;;;;;6.86;54.69;103141.22;4972283;28;124119;-76
2022/01/26 07:03:53;;;;;;;89.60;28.35;;;;;;;6.88;54.81;103143.84;4989987;28;123815;-76
2022/01/26 07:06:21;;;;;;;93.90;27.63;;;;;;;6.87;54.71;103131.53;4988153;28;113291;-77
2022/01/26 07:08:48;;;;;;;93.28;27.40;;;;;;;6.86;54.64;103132.44;4989433;28;113450;-77
2022/01/26 07:11:15;;;;;;;91.20;27.45;;;;;;;6.87;54.76;103131.53;4989911;28;124736;-77
2022/01/26 07:13:42;;;;;;;95.60;28.70;;;;;;;6.86;54.64;103129.81;4989929;28;123520;-76
2022/01/26 07:21:41;;;;;;;89.25;26.58;;;;;;;6.83;54.86;103147.31;4988397;28;123551;-76
2022/01/26 07:24:08;;;;;;;99.85;27.88;;;;;;;6.83;54.73;103151.72;4987157;28;123631;-76
2022/01/26 07:26:37;;;;;;;89.45;26.95;;;;;;;6.81;54.98;103164.00;4989655;28;114069;-76
2022/01/26 07:29:08;;;;;;;89.25;28.35;;;;;;;6.80;55.11;103149.94;4988035;28;112529;-76
2022/01/26 07:31:36;;;;;;;88.88;28.13;;;;;;;6.81;54.94;103142.91;4986996;28;124559;-76
2022/01/26 07:34:04;;;;;;;93.75;28.55;;;;;;;6.82;55.02;103156.09;4989671;28;123338;-76
2022/01/26 07:36:31;;;;;;;95.53;27.65;;;;;;;6.84;55.23;103164.03;4987039;28;114632;-76
2022/01/26 07:39:06;;;;;;;92.32;27.30;;;;;;;6.86;54.87;103145.59;4971361;28;113488;-76
2022/01/26 07:41:34;;;;;;;90.68;26.88;;;;;;;6.86;54.92;103140.34;4983852;28;124680;-76
2022/01/26 07:44:02;;;;;;;92.15;28.25;;;;;;;6.86;54.99;103135.94;4987186;28;123918;-76
2022/01/26 07:46:30;;;;;;;83.93;28.08;;;;;;;6.88;55.14;103138.59;4971234;28;113628;-76
2022/01/26 07:48:57;;;;;;;91.95;28.25;;;;;;;6.87;55.27;103142.97;4971854;28;113693;-76
2022/01/26 07:51:24;;;;;;;93.57;28.40;;;;;;;6.86;55.09;103140.34;4989142;28;123786;-77
2022/01/26 07:53:51;;;;;;;94.25;29.15;;;;;;;6.87;55.21;103142.09;4988622;28;125056;-76
2022/01/26 07:56:18;;;;;;;92.45;27.42;;;;;;;6.88;55.00;103149.13;4986010;28;114888;-76
2022/01/26 07:58:48;;;;;;;91.93;28.25;;;;;;;6.88;55.14;103159.66;4989488;28;113133;-76
2022/01/26 08:01:15;;;;;;;87.72;27.77;;;;;;;6.89;55.07;103164.03;4987892;28;124087;-76
2022/01/26 08:03:43;;;;;;;94.00;27.95;;;;;;;6.87;55.66;103163.16;4989181;28;123734;-75
2022/01/26 08:06:15;;;;;;;94.72;29.02;;;;;;;6.87;55.37;103165.78;4987143;28;115398;-76
2022/01/26 08:08:42;;;;;;;93.35;28.50;;;;;;;6.87;55.21;103163.16;4985800;28;115079;-77
2022/01/26 08:11:10;;;;;;;101.43;27.83;;;;;;;6.85;55.44;103160.50;4987191;28;124201;-76
2022/01/26 08:13:37;;;;;;;90.10;27.02;;;;;;;6.83;55.41;103173.66;4988935;28;124593;-76
2022/01/26 08:16:04;;;;;;;94.88;28.45;;;;;;;6.81;55.65;103180.66;4988226;28;114504;-76
2022/01/26 08:18:31;;;;;;;86.38;27.92;;;;;;;6.81;55.47;103180.66;4988008;28;113556;-76
2022/01/26 08:21:05;;;;;;;96.13;28.13;;;;;;;6.82;55.51;103192.09;4971007;28;123330;-76
2022/01/26 08:23:35;;;;;;;97.05;28.17;;;;;;;6.82;55.59;103192.97;4985794;28;123105;-76
2022/01/26 08:26:03;;;;;;;84.85;26.67;;;;;;;6.83;55.87;103181.56;4987852;28;113415;-77
2022/01/26 08:28:37;;;;;;;100.38;29.30;;;;;;;6.82;55.79;103179.81;4989429;28;113968;-76
2022/01/26 08:31:05;;;;;;;86.93;28.30;;;;;;;6.82;55.85;103181.56;4985267;28;124052;-76
2022/01/26 08:33:32;;;;;;;93.03;29.02;;;;;;;6.81;56.04;103183.28;4989010;28;124272;-76
2022/01/26 08:35:59;;;;;;;97.32;28.15;;;;;;;6.81;55.70;103183.28;4973224;28;112561;-75
2022/01/26 08:38:26;;;;;;;96.32;28.45;;;;;;;6.81;56.10;103180.66;4990986;28;113449;-77
2022/01/26 08:40:53;;;;;;;91.70;28.98;;;;;;;6.82;56.05;103182.44;4990694;28;123886;-76
2022/01/26 08:43:20;;;;;;;86.53;27.45;;;;;;;6.83;56.27;103194.72;4991075;28;123082;-77
2022/01/26 08:45:48;;;;;;;88.20;27.52;;;;;;;6.85;56.23;103185.97;4991875;28;114701;-76
2022/01/26 08:48:15;;;;;;;93.82;28.75;;;;;;;6.87;56.01;103186.88;4992977;28;114130;-76
2022/01/26 08:50:42;;;;;;;92.35;28.08;;;;;;;6.87;56.29;103189.50;4990812;28;124266;-76
2022/01/26 08:53:10;;;;;;;89.82;27.98;;;;;;;6.88;56.30;103201.81;4990976;28;122900;-75
2022/01/26 08:55:37;;;;;;;93.32;29.98;;;;;;;6.89;56.04;103198.28;4992541;28;115287;-76
2022/01/26 08:58:05;;;;;;;92.55;29.10;;;;;;;6.90;56.33;103194.81;4991309;28;114693;-76
2022/01/26 09:00:35;;;;;;;93.95;28.17;;;;;;;6.89;56.09;103203.56;4991470;28;123749;-76
2022/01/26 09:03:13;;;;;;;95.25;29.08;;;;;;;6.90;56.42;103184.25;4987813;28;124410;-77
2022/01/26 09:05:40;;;;;;;91.70;27.83;;;;;;;6.90;56.48;103185.13;4990582;28;113928;-76
2022/01/26 09:08:08;;;;;;;97.97;29.33;;;;;;;6.93;56.39;103190.44;4990875;28;114282;-77
2022/01/26 09:10:37;;;;;;;93.43;28.55;;;;;;;6.94;56.35;103181.66;4991530;28;124597;-76
2022/01/26 09:13:04;;;;;;;89.68;28.70;;;;;;;6.97;56.59;103188.72;4990567;28;123801;-76
2022/01/26 09:15:32;;;;;;;87.38;26.88;;;;;;;6.99;56.53;103184.34;4990603;28;113721;-77
2022/01/26 09:18:03;;;;;;;86.10;27.67;;;;;;;7.01;56.39;103185.22;4990261;28;112677;-76
2022/01/26 09:20:33;;;;;;;97.03;28.10;;;;;;;7.02;56.67;103185.22;4989112;28;123012;-76
2022/01/26 09:23:01;;;;;;;89.53;27.25;;;;;;;7.05;56.32;103179.09;4990685;28;123620;-76
2022/01/26 09:25:33;;;;;;;84.78;25.50;;;;;;;7.08;56.77;103183.50;4987725;28;113809;-76
2022/01/26 09:28:00;;;;;;;89.05;27.30;;;;;;;7.10;56.70;103187.94;4990675;28;113515;-76
2022/01/26 09:30:28;;;;;;;85.22;26.40;;;;;;;7.10;56.42;103193.22;4990524;28;124192;-77
2022/01/26 09:32:55;;;;;;;89.20;27.25;;;;;;;7.11;56.48;103184.41;4992156;28;123573;-76
2022/01/26 09:35:22;;;;;;;86.40;26.65;;;;;;;7.14;56.75;103184.44;4993025;28;113320;-76
2022/01/26 09:37:49;;;;;;;91.53;26.75;;;;;;;7.16;56.57;103182.69;4993931;28;114385;-76
2022/01/26 09:40:16;;;;;;;82.68;26.80;;;;;;;7.19;57.04;103182.69;4992526;28;123743;-77
2022/01/26 09:42:46;;;;;;;83.60;26.55;;;;;;;7.21;56.84;103170.44;5002851;28;124217;-77
2022/01/26 09:45:13;;;;;;;88.00;26.40;;;;;;;7.23;56.73;103175.69;5013789;28;115189;-76
2022/01/26 09:47:40;;;;;;;83.75;25.48;;;;;;;7.24;56.62;103168.69;4993053;28;115834;-76
2022/01/26 09:50:28;;;;;;;82.15;26.63;;;;;;;7.25;56.94;103175.72;4988880;28;124766;-77
2022/01/26 09:52:56;;;;;;;84.78;25.75;;;;;;;7.25;56.80;103166.03;4973805;28;123322;-76
2022/01/26 09:55:25;;;;;;;90.78;27.42;;;;;;;7.26;56.61;103161.69;4989710;28;113700;-77
2022/01/26 09:57:58;;;;;;;88.25;26.08;;;;;;;7.25;56.95;103165.16;4991376;28;113456;-76
2022/01/26 10:00:29;;;;;;;80.47;26.05;;;;;;;7.25;56.96;103154.63;4986565;28;124058;-76
2022/01/26 10:02:58;;;;;;;76.30;25.85;;;;;;;7.24;56.89;103158.16;4973504;28;123287;-76
2022/01/26 10:05:26;;;;;;;81.90;26.63;;;;;;;7.24;56.97;103163.44;4991113;28;114356;-76
2022/01/26 10:08:07;;;;;;;77.68;25.75;;;;;;;7.24;56.58;103158.16;4989554;28;114411;-77
2022/01/26 10:16:35;;;;;;;81.57;25.73;;;;;;;7.26;56.94;103172.22;4988671;28;114567;-76
2022/01/26 10:18:57;;;;;;;70.40;23.92;;;;;;;7.28;56.85;103165.19;4991128;28;113964;-77
2022/01/26 10:21:25;;;;;;;81.72;25.65;;;;;;;7.31;56.81;103165.19;4989213;28;123877;-76
2022/01/26 10:23:54;;;;;;;85.97;26.30;;;;;;;7.32;56.92;103159.06;4990788;28;124046;-75
2022/01/26 10:26:22;;;;;;;76.03;25.08;;;;;;;7.35;57.33;103156.47;4973124;28;114252;-76
2022/01/26 10:28:57;;;;;;;83.03;26.65;;;;;;;7.36;56.93;103160.84;4991562;28;114321;-76
2022/01/26 10:31:30;;;;;;;84.45;25.52;;;;;;;7.38;56.95;103167.00;4990271;28;123784;-76
2022/01/26 10:34:09;;;;;;;76.63;25.25;;;;;;;7.41;57.13;103177.59;4989206;28;123915;-77
2022/01/26 10:36:45;;;;;;;81.00;25.17;;;;;;;7.41;57.27;103191.63;4988979;28;115219;-76
2022/01/26 10:39:20;;;;;;;82.38;25.92;;;;;;;7.42;57.12;103210.97;4989462;28;114210;-76
2022/01/26 10:41:50;;;;;;;;;;;;;;;7.45;57.27;103204.84;4987910;28;123545;-77
2022/01/26 10:44:29;;;;;;;72.07;23.58;;;;;;;7.46;56.98;103212.78;4990519;28;124306;-76
2022/01/26 10:47:00;;;;;;;73.18;24.23;;;;;;;7.47;56.89;103219.78;4988840;28;113294;-76
2022/01/26 10:52:30;;;;;;;69.70;23.25;;;;;;;7.48;57.23;103195.22;4988673;28;124284;-76
2022/01/26 10:54:57;;;;;;;74.75;23.65;;;;;;;7.49;57.13;103196.94;4988826;28;123456;-76
2022/01/26 10:57:25;;;;;;;70.22;23.38;;;;;;;7.49;56.91;103186.41;4990325;28;112963;-77
2022/01/26 10:59:52;;;;;;;71.10;23.30;;;;;;;7.50;57.20;103182.91;4990309;28;113219;-75
2022/01/26 11:02:30;;;;;;;72.10;23.10;;;;;;;7.52;57.18;103191.72;4988593;28;124779;-76
2022/01/26 11:04:57;;;;;;;67.82;22.45;;;;;;;7.55;56.97;103189.09;4988730;28;123695;-76
2022/01/26 11:07:36;;;;;;;60.58;21.92;;;;;;;7.57;57.32;103189.09;4988499;28;115290;-76
2022/01/26 11:10:07;;;;;;;62.05;21.77;;;;;;;7.58;56.97;103186.47;4972115;28;113412;-76
2022/01/26 11:12:38;;;;;;;64.07;23.23;;;;;;;7.60;57.05;103192.63;4988708;28;123319;-77
2022/01/26 11:15:10;;;;;;;63.67;21.40;;;;;;;7.62;57.15;103191.75;4987456;28;124052;-76
2022/01/26 11:17:43;;;;;;;66.78;23.30;;;;;;;7.62;57.04;103182.09;4988568;28;113411;-77
2022/01/26 11:20:33;;;;;;;69.32;21.65;;;;;;;7.63;57.28;103185.59;4989152;28;114085;-76
2022/01/26 11:23:04;;;;;;;62.13;21.83;;;;;;;7.64;56.86;103187.38;4971755;28;122870;-77
2022/01/26 11:25:43;;;;;;;;;;;;;;;7.63;56.87;103173.31;4988570;28;123708;-76
2022/01/26 11:28:25;;;;;;;60.50;19.65;;;;;;;7.65;56.94;103181.22;4989464;28;115317;-76
2022/01/26 11:30:59;;;;;;;62.30;20.40;;;;;;;7.64;57.21;103179.47;4988304;28;115010;-77
2022/01/26 11:33:29;;;;;;;53.88;19.63;;;;;;;7.65;57.08;103170.66;4987127;28;124780;-77
2022/01/26 11:35:57;;;;;;;57.90;20.80;;;;;;;7.67;57.11;103163.66;4988446;28;123658;-77
2022/01/26 11:39:03;;;;;;;60.70;19.85;;;;;;;7.68;57.47;103154.84;4988777;28;114803;-77
2022/01/26 11:47:30;;;;;;;57.38;19.48;;;;;;;7.69;57.08;103151.34;4971954;28;123523;-77
2022/01/26 11:50:06;;;;;;;57.60;20.80;;;;;;;7.71;57.22;103154.88;4986471;28;113929;-76
2022/01/26 11:52:38;;;;;;;57.70;19.85;;;;;;;7.72;57.25;103152.25;4972199;28;113013;-75
2022/01/26 11:55:50;;;;;;;56.97;20.58;;;;;;;7.73;57.01;103153.13;4987880;28;124350;-77
2022/01/26 11:58:31;;;;;;;52.92;19.45;;;;;;;7.73;57.20;103142.59;4967693;28;123178;-77
2022/01/26 12:01:14;;;;;;;50.72;18.38;;;;;;;7.74;57.04;103133.78;4986801;28;114731;-77
2022/01/26 12:03:47;;;;;;;52.33;19.33;;;;;;;7.77;57.27;103133.78;4972388;28;113604;-77
2022/01/26 12:06:35;;;;;;;54.90;19.50;;;;;;;7.78;57.04;103140.84;4971380;28;123441;-77
2022/01/26 12:09:05;;;;;;;54.10;19.75;;;;;;;7.80;57.27;103134.69;4987751;28;123460;-76
2022/01/26 12:11:33;;;;;;;50.20;18.55;;;;;;;7.83;57.25;103128.53;4992121;28;113851;-77
2022/01/26 12:14:03;;;;;;;51.60;18.95;;;;;;;7.86;57.28;103138.22;4991918;28;112959;-76
2022/01/26 12:16:43;;;;;;;55.63;18.23;;;;;;;7.88;57.30;103132.06;4992301;28;124533;-76
2022/01/26 12:33:35;;;;;;;50.55;19.38;;;;;;;8.03;57.44;103146.19;4991661;28;113878;-77
2022/01/26 12:36:16;;;;;;;55.53;19.83;;;;;;;8.06;57.16;103135.63;4991249;28;113650;-77
2022/01/26 12:38:47;;;;;;;50.08;19.65;;;;;;;8.08;57.36;103139.16;4991272;28;123519;-76
2022/01/26 12:41:33;;;;;;;53.75;20.40;;;;;;;8.09;57.62;103135.66;4991999;28;124707;-77
2022/01/26 12:44:08;;;;;;;50.50;19.88;;;;;;;8.09;57.31;103135.66;4991698;28;113546;-77
2022/01/26 12:46:37;;;;;;;57.95;20.05;;;;;;;8.12;57.11;103135.66;4991150;28;113945;-77
2022/01/26 12:49:13;;;;;;;56.00;20.42;;;;;;;8.13;57.43;103121.59;4991917;28;122886;-77
2022/01/26 12:51:45;;;;;;;61.55;20.67;;;;;;;8.14;57.40;103128.63;4974292;28;123125;-77
2022/01/26 12:54:13;;;;;;;61.65;21.98;;;;;;;8.14;57.48;103128.63;4991042;28;114845;-77
2022/01/26 12:56:41;;;;;;;55.70;19.85;;;;;;;8.15;57.21;103130.38;4992450;28;113769;-76
2022/01/26 12:59:12;;;;;;;57.35;20.80;;;;;;;8.16;57.43;103121.59;4990854;28;123622;-77
2022/01/26 13:01:41;;;;;;;63.25;20.80;;;;;;;8.17;57.20;103123.34;4989589;28;123932;-77
2022/01/26 13:04:13;;;;;;;55.53;20.20;;;;;;;8.18;57.44;103120.72;4991042;28;113756;-77
2022/01/26 13:06:49;;;;;;;54.30;20.75;;;;;;;8.19;57.20;103111.03;4991749;28;113443;-76
2022/01/26 13:09:21;;;;;;;59.88;21.13;;;;;;;8.21;57.29;103109.25;4973578;28;123660;-77
2022/01/26 13:11:50;;;;;;;61.92;22.45;;;;;;;8.23;57.18;103118.09;4990277;28;122903;-76